Gustavus Airport
PAGS : now visible

Airfield :











YOU CAN JOIN US ON...

 
LOGIN :

Register | Disclaimer

   EN    FR    IT 

 









Legend :    VFR   Marginal VFR   IFR   Intensive IFR   Very Intensive IFR
Visi :
Ceiling :
>= 8 km
>= 3000ft
5 to 8 km
1000 to 3000 ft
1500m to 5 km
500 to 1000 ft
800 to 1500m
200 to 500 ft
< 800m
< 200 ft
Symbols :   Thunderstorms  Fog  Heavy snow  Heavy precipitations  Wind > 20 kt






- Airport Elevation : 35 ft
- IATA code : GST


PAGS - Gustavus

CURRENT METAR :
  • 162356Z AUTO 23012KT 10SM CLR 16/09 A3009 RMK AO2 SLP188 T01560094 10172 20133 56006 TSNO

EXPIRED METARs :
  • 162256Z AUTO 20009KT 10SM CLR 16/09 A3009 RMK AO2 SLP189 T01610089 TSNO
  • 162156Z AUTO 20008KT 10SM CLR 17/10 A3010 RMK AO2 SLP191 T01670100 TSNO
  • 162056Z AUTO 20007KT 170V230 10SM CLR 16/09 A3011 RMK AO2 SLP194 T01560094 58007 TSNO
  • 161956Z AUTO 23010KT 10SM CLR 14/09 A3011 RMK AO2 SLP196 T01440094 TSNO

TAF PAGS
Valid from the 17 at 00:00 until the 18 at 00:00 UTC


162320Z 1700/1724 20008KT P6SM SKC
FM170400 22009KT P6SM SCT013
FM171000 VRB04KT P6SM OVC007 AMD LTD TO CLD VIS AND WIND
PAZA FIR / North America



MET'MAP, your aeronautical weather chart ! - Copyright ORBIFLY December 2007 - Disclaimer

ORBIFLY MET'MAP TEAM :

Programming & Development : Alexandra Zaïnal
Original concept : Baudouin d'Aumeries
Technical & hardware support : Manuel Goepfert
Assistance : Marc-Olivier Méhu




SOURCES & CREDITS :

   NOAA       Earth
Advisory